Time;durP1;ratioP1;P1;durP2;ratioP2;P2;SDS_P1;SDS_P2;PMS_P1;PMS_P2;Temp;Humidity;BMP_temperature;BMP_pressure;BME280_temperature;BME280_humidity;BME280_pressure;Samples;Min_cycle;Max_cycle;Signal;HPM_P1;HPM_P2
2022/11/19 00:01:03;;;;;;;25.58;14.05;;;6.70;99.90;;;;;;5074370;28;20024;-73
2022/11/19 00:03:31;;;;;;;23.77;14.20;;;6.70;99.90;;;;;;5075408;28;20028;-73
2022/11/19 00:06:06;;;;;;;23.83;14.07;;;6.70;99.90;;;;;;5075098;28;20077;-74
2022/11/19 00:08:32;;;;;;;20.10;12.93;;;6.70;99.90;;;;;;5074330;28;20472;-74
2022/11/19 00:11:05;;;;;;;24.02;15.13;;;6.70;99.90;;;;;;5074649;28;20082;-73
2022/11/19 00:13:31;;;;;;;23.23;14.45;;;6.70;99.90;;;;;;5074894;28;20414;-73
2022/11/19 00:16:03;;;;;;;25.08;14.38;;;6.70;99.90;;;;;;5074020;28;20108;-74
2022/11/19 00:18:29;;;;;;;25.30;14.15;;;6.70;99.90;;;;;;5088865;28;20584;-73
2022/11/19 00:20:55;;;;;;;23.92;14.30;;;6.60;99.90;;;;;;5074575;28;20479;-73
2022/11/19 00:23:24;;;;;;;23.10;14.15;;;6.60;99.90;;;;;;5073163;28;20107;-73
2022/11/19 00:25:49;;;;;;;22.25;14.05;;;6.60;99.90;;;;;;5074469;28;20032;-73
2022/11/19 00:28:15;;;;;;;27.65;15.35;;;6.60;99.90;;;;;;5073763;28;20073;-74
2022/11/19 00:30:46;;;;;;;24.92;15.68;;;6.50;99.90;;;;;;5074230;28;20029;-74
2022/11/19 00:33:12;;;;;;;27.85;15.20;;;6.50;99.90;;;;;;5074051;28;20021;-73
2022/11/19 00:35:38;;;;;;;26.77;14.60;;;6.50;99.90;;;;;;5072824;28;20064;-74
2022/11/19 00:38:03;;;;;;;22.35;14.10;;;6.40;99.90;;;;;;5074327;28;20021;-74
2022/11/19 00:40:29;;;;;;;37.60;16.67;;;6.40;99.90;;;;;;5074205;28;20032;-74
2022/11/19 00:45:43;;;;;;;38.92;20.30;;;6.40;99.90;;;;;;5074579;28;20082;-73
2022/11/19 00:48:09;;;;;;;35.63;19.30;;;6.40;99.90;;;;;;5073848;28;20025;-73
2022/11/19 00:50:34;;;;;;;32.97;19.48;;;6.40;99.90;;;;;;5073260;28;20464;-73
2022/11/19 00:53:00;;;;;;;30.17;17.23;;;6.40;99.90;;;;;;5059651;28;20036;-73
2022/11/19 00:55:31;;;;;;;32.20;19.23;;;6.40;99.90;;;;;;5074265;28;20040;-73
2022/11/19 00:57:57;;;;;;;33.22;17.10;;;6.30;99.90;;;;;;5073082;28;20013;-73
2022/11/19 01:00:22;;;;;;;31.67;17.92;;;6.30;99.90;;;;;;5073755;28;20491;-72
2022/11/19 01:02:48;;;;;;;38.65;18.35;;;6.30;99.90;;;;;;5073812;28;20020;-73
2022/11/19 01:05:14;;;;;;;27.52;16.92;;;6.20;99.90;;;;;;5072925;28;20059;-74
2022/11/19 01:07:39;;;;;;;32.22;18.83;;;6.10;99.90;;;;;;5073734;28;20082;-73
2022/11/19 01:10:05;;;;;;;32.58;18.00;;;6.10;99.90;;;;;;5087835;28;20024;-74
2022/11/19 01:13:33;;;;;;;33.58;18.40;;;6.10;99.90;;;;;;5073815;28;20087;-74
2022/11/19 01:15:17;;;;;;;27.17;17.38;;;6.00;99.90;;;;;;5075139;28;20412;-74
2022/11/19 01:17:43;;;;;;;30.27;18.20;;;6.10;99.90;;;;;;5075137;28;20031;-73
2022/11/19 01:20:09;;;;;;;26.58;17.75;;;6.00;99.90;;;;;;5073540;28;20024;-74
2022/11/19 01:22:34;;;;;;;28.95;18.30;;;6.10;99.90;;;;;;5073818;28;20031;-74
2022/11/19 01:25:00;;;;;;;30.60;17.58;;;6.00;99.90;;;;;;5072127;28;20060;-72
2022/11/19 01:27:25;;;;;;;25.25;17.67;;;6.00;99.90;;;;;;5073682;28;20020;-73
2022/11/19 01:29:51;;;;;;;30.08;18.45;;;6.00;99.90;;;;;;5073267;28;20028;-73
2022/11/19 01:32:16;;;;;;;27.88;18.30;;;6.00;99.90;;;;;;5072471;28;20342;-73
2022/11/19 01:34:42;;;;;;;30.25;18.98;;;5.90;99.90;;;;;;5073432;28;20519;-74
2022/11/19 01:37:07;;;;;;;28.05;17.73;;;5.90;99.90;;;;;;5073007;28;20419;-73
2022/11/19 01:39:33;;;;;;;28.33;19.23;;;5.90;99.90;;;;;;5072775;28;20069;-73
2022/11/19 01:41:58;;;;;;;25.95;16.77;;;5.90;99.90;;;;;;5073330;28;20190;-72
2022/11/19 01:45:03;;;;;;;27.48;17.35;;;5.90;99.90;;;;;;5073257;28;20032;-73
2022/11/19 01:47:28;;;;;;;34.30;17.13;;;5.80;99.90;;;;;;5072036;28;20062;-72
2022/11/19 01:49:54;;;;;;;30.02;16.30;;;5.80;99.90;;;;;;5073442;28;20115;-74
2022/11/19 01:52:21;;;;;;;26.35;16.02;;;5.80;99.90;;;;;;5059095;28;20044;-72
2022/11/19 01:54:52;;;;;;;28.23;16.38;;;5.80;99.90;;;;;;5058822;28;20037;-73
2022/11/19 01:57:17;;;;;;;26.90;17.33;;;5.80;99.90;;;;;;5072600;28;20028;-75
2022/11/19 01:59:46;;;;;;;27.17;16.75;;;5.80;99.90;;;;;;5072353;28;20029;-74
2022/11/19 02:02:12;;;;;;;26.25;16.52;;;5.70;99.90;;;;;;5072248;28;20044;-73
2022/11/19 02:04:38;;;;;;;27.02;16.67;;;5.70;99.90;;;;;;5072261;28;20025;-72
2022/11/19 02:07:06;;;;;;;27.50;16.55;;;5.70;99.90;;;;;;5071704;28;20419;-73
2022/11/19 02:09:32;;;;;;;33.25;16.98;;;5.70;99.90;;;;;;5072555;28;20036;-73
2022/11/19 02:12:27;;;;;;;31.88;16.17;;;5.60;99.90;;;;;;5072814;28;20025;-73
2022/11/19 02:14:59;;;;;;;26.35;15.90;;;5.60;99.90;;;;;;5072108;28;20021;-73
2022/11/19 02:17:53;;;;;;;24.25;15.82;;;5.60;99.90;;;;;;5072809;28;20032;-73
2022/11/19 02:20:27;;;;;;;26.08;16.75;;;5.60;99.90;;;;;;5058598;28;20107;-73
2022/11/19 02:23:30;;;;;;;23.17;16.00;;;5.60;99.90;;;;;;5072239;28;20117;-73
2022/11/19 02:26:14;;;;;;;25.70;15.68;;;5.70;99.90;;;;;;5072764;28;20036;-72
2022/11/19 02:28:46;;;;;;;31.40;17.25;;;5.60;99.90;;;;;;5071808;28;20028;-74
2022/11/19 02:31:32;;;;;;;31.80;17.25;;;5.60;99.90;;;;;;5072000;28;20485;-74
2022/11/19 02:34:11;;;;;;;29.45;16.10;;;5.60;99.90;;;;;;5072373;28;20075;-74
2022/11/19 02:36:52;;;;;;;28.20;17.50;;;5.50;99.90;;;;;;5071139;28;20044;-73
2022/11/19 02:39:29;;;;;;;27.33;16.75;;;5.50;99.90;;;;;;5072790;28;20013;-73
2022/11/19 02:42:09;;;;;;;28.75;16.48;;;5.50;99.90;;;;;;5072900;28;20048;-72
2022/11/19 02:44:57;;;;;;;32.17;17.38;;;5.50;99.90;;;;;;5073196;28;20116;-72
2022/11/19 02:47:44;;;;;;;32.05;17.95;;;5.40;99.90;;;;;;5072438;28;20062;-72
2022/11/19 02:50:13;;;;;;;24.20;16.55;;;5.50;99.90;;;;;;5071396;28;20024;-73
2022/11/19 02:52:40;;;;;;;32.67;18.02;;;5.50;99.90;;;;;;5058006;28;20472;-74
2022/11/19 02:55:06;;;;;;;29.20;17.73;;;5.50;99.90;;;;;;5053997;28;20044;-73
2022/11/19 02:57:34;;;;;;;25.77;17.02;;;5.50;99.90;;;;;;5071959;28;20028;-72
2022/11/19 03:05:52;;;;;;;24.67;15.93;;;5.40;99.90;;;;;;5075837;28;20044;-73
2022/11/19 03:08:18;;;;;;;28.77;17.45;;;5.40;99.90;;;;;;5075421;28;20465;-72
2022/11/19 03:11:00;;;;;;;27.92;16.33;;;5.40;99.90;;;;;;5075327;28;20060;-72
2022/11/19 03:17:06;;;;;;;27.67;17.50;;;5.40;99.90;;;;;;5014402;28;20720;-73
2022/11/19 03:19:47;;;;;;;24.75;16.23;;;5.40;99.90;;;;;;5013935;28;20422;-74
2022/11/19 03:22:36;;;;;;;29.23;18.45;;;5.40;99.90;;;;;;5048926;28;20036;-73
2022/11/19 03:25:08;;;;;;;25.75;18.02;;;5.40;99.90;;;;;;5064267;28;20041;-73
2022/11/19 03:27:41;;;;;;;28.13;17.48;;;5.40;99.90;;;;;;5059496;28;20025;-73
2022/11/19 03:30:07;;;;;;;30.90;16.33;;;5.30;99.90;;;;;;5061973;28;20025;-72
2022/11/19 03:32:43;;;;;;;31.25;17.50;;;5.30;99.90;;;;;;5060451;28;20375;-72
2022/11/19 03:35:16;;;;;;;27.05;18.40;;;5.20;99.90;;;;;;5074587;28;20069;-74
2022/11/19 03:37:45;;;;;;;25.70;18.13;;;5.20;99.90;;;;;;5061556;28;20154;-73
2022/11/19 03:40:14;;;;;;;28.00;17.00;;;5.20;99.90;;;;;;5061776;28;20492;-73
2022/11/19 03:42:42;;;;;;;25.80;17.80;;;5.20;99.90;;;;;;5073778;28;20024;-74
2022/11/19 03:45:12;;;;;;;33.92;19.42;;;5.20;99.90;;;;;;5073217;28;20063;-73
2022/11/19 03:47:40;;;;;;;25.80;17.70;;;5.10;99.90;;;;;;5074991;28;20017;-73
2022/11/19 03:50:14;;;;;;;26.48;18.48;;;5.10;99.90;;;;;;5075173;28;20032;-72
2022/11/19 03:52:41;;;;;;;27.05;18.42;;;5.10;99.90;;;;;;5060784;28;20016;-72
2022/11/19 03:55:07;;;;;;;24.90;18.35;;;5.20;99.90;;;;;;5074875;28;20020;-73
2022/11/19 03:57:33;;;;;;;30.65;18.67;;;5.10;99.90;;;;;;5060759;28;20121;-73
2022/11/19 03:59:59;;;;;;;32.00;19.25;;;5.10;99.90;;;;;;5074311;28;20046;-74
2022/11/19 04:02:24;;;;;;;25.90;18.42;;;5.10;99.90;;;;;;5074606;28;20029;-74
2022/11/19 04:04:50;;;;;;;25.02;18.17;;;5.10;99.90;;;;;;5074721;28;20078;-73
2022/11/19 04:07:18;;;;;;;26.67;18.65;;;5.00;99.90;;;;;;5074175;28;20073;-72
2022/11/19 04:09:44;;;;;;;29.40;20.05;;;5.00;99.90;;;;;;5073662;28;20025;-72
2022/11/19 04:12:17;;;;;;;28.90;18.85;;;5.00;99.90;;;;;;5074612;28;20070;-73
2022/11/19 04:14:43;;;;;;;28.73;19.02;;;4.90;99.90;;;;;;5074381;28;20032;-72
2022/11/19 04:17:09;;;;;;;25.73;18.92;;;5.00;99.90;;;;;;5074907;28;20024;-72
2022/11/19 04:19:34;;;;;;;29.73;20.48;;;5.00;99.90;;;;;;5074868;28;20115;-74
2022/11/19 04:22:00;;;;;;;29.13;20.15;;;5.00;99.90;;;;;;5073613;28;20017;-73
2022/11/19 04:24:25;;;;;;;27.88;19.40;;;4.90;99.90;;;;;;5074800;28;20031;-73
2022/11/19 04:26:51;;;;;;;32.47;21.38;;;4.90;99.90;;;;;;5074414;28;20484;-73
2022/11/19 04:29:16;;;;;;;33.67;22.60;;;4.90;99.90;;;;;;5073623;28;20025;-73
2022/11/19 04:31:42;;;;;;;35.60;22.85;;;4.80;99.90;;;;;;5060195;28;20033;-73
2022/11/19 04:34:08;;;;;;;34.38;22.58;;;4.80;99.90;;;;;;5074326;28;20453;-73
2022/11/19 04:36:34;;;;;;;34.45;21.83;;;4.80;99.90;;;;;;5073867;28;20094;-74
2022/11/19 04:38:59;;;;;;;34.30;22.13;;;4.80;99.90;;;;;;5074467;28;20012;-73
2022/11/19 04:41:25;;;;;;;34.35;22.23;;;4.80;99.90;;;;;;5080669;28;20036;-73
2022/11/19 04:43:51;;;;;;;31.63;21.92;;;4.80;99.90;;;;;;5074551;28;20434;-74
2022/11/19 04:46:16;;;;;;;35.42;21.00;;;4.70;99.90;;;;;;5074050;28;20115;-73
2022/11/19 04:48:42;;;;;;;34.58;22.42;;;4.70;99.90;;;;;;5073976;28;20465;-73
2022/11/19 04:51:08;;;;;;;35.08;23.08;;;4.70;99.90;;;;;;5074421;28;20020;-73
2022/11/19 04:53:33;;;;;;;41.33;24.13;;;4.70;99.90;;;;;;5074207;28;20086;-72
2022/11/19 04:55:59;;;;;;;37.13;24.30;;;4.70;99.90;;;;;;5073362;28;20017;-73
2022/11/19 04:58:25;;;;;;;43.53;24.50;;;4.70;99.90;;;;;;5073774;28;20066;-74
2022/11/19 05:00:50;;;;;;;46.65;25.00;;;4.70;99.90;;;;;;5074031;28;20059;-72
2022/11/19 05:03:16;;;;;;;40.67;25.40;;;4.60;99.90;;;;;;5073230;28;20017;-73
2022/11/19 05:05:41;;;;;;;41.38;26.88;;;4.60;99.90;;;;;;5073572;28;20032;-73
2022/11/19 05:08:07;;;;;;;39.75;25.70;;;4.60;99.90;;;;;;5073874;28;20066;-73
2022/11/19 05:10:32;;;;;;;38.53;25.23;;;4.50;99.90;;;;;;5072860;28;20059;-73
2022/11/19 05:13:07;;;;;;;41.53;25.55;;;4.50;99.90;;;;;;5073623;28;20079;-73
2022/11/19 05:15:33;;;;;;;37.95;24.02;;;4.40;99.90;;;;;;5073520;28;20032;-73
2022/11/19 05:17:58;;;;;;;41.55;24.73;;;4.40;99.90;;;;;;5072581;28;20017;-72
2022/11/19 05:20:24;;;;;;;41.05;25.38;;;4.50;99.90;;;;;;5073032;28;20039;-73
2022/11/19 05:22:49;;;;;;;43.78;27.17;;;4.50;99.90;;;;;;5073665;28;20032;-72
2022/11/19 05:25:15;;;;;;;37.22;24.02;;;4.40;99.90;;;;;;5072151;28;20032;-73
2022/11/19 05:27:40;;;;;;;37.55;24.17;;;4.40;99.90;;;;;;5073682;28;20119;-72
2022/11/19 05:30:07;;;;;;;36.97;26.23;;;4.30;99.90;;;;;;5072199;28;20016;-73
2022/11/19 05:32:32;;;;;;;40.45;25.67;;;4.30;99.90;;;;;;5060467;28;20020;-73
2022/11/19 05:34:58;;;;;;;40.58;25.70;;;4.30;99.90;;;;;;5073971;28;20365;-72
2022/11/19 05:37:23;;;;;;;37.20;24.92;;;4.30;99.90;;;;;;5073199;28;20426;-73
2022/11/19 05:39:49;;;;;;;35.15;23.63;;;4.20;99.90;;;;;;5072212;28;20067;-72
2022/11/19 05:42:14;;;;;;;36.50;24.70;;;4.20;99.90;;;;;;5072694;28;20017;-73
2022/11/19 05:44:40;;;;;;;35.67;23.23;;;4.20;99.90;;;;;;5072200;28;20086;-73
2022/11/19 05:47:05;;;;;;;40.63;24.55;;;4.20;99.90;;;;;;5072753;28;20024;-73
2022/11/19 05:49:31;;;;;;;33.10;23.15;;;4.20;99.90;;;;;;5073738;28;20028;-73
2022/11/19 05:51:56;;;;;;;34.63;24.48;;;4.20;99.90;;;;;;5072504;28;20028;-72
2022/11/19 05:54:22;;;;;;;35.70;24.17;;;4.20;99.90;;;;;;5072361;28;20059;-73
2022/11/19 05:56:47;;;;;;;36.00;23.65;;;4.30;99.90;;;;;;5072368;28;20060;-73
2022/11/19 05:59:14;;;;;;;35.28;23.75;;;4.10;99.90;;;;;;5071606;28;20027;-73
2022/11/19 06:01:39;;;;;;;35.63;23.90;;;4.10;99.90;;;;;;5072807;28;20024;-73
2022/11/19 06:04:05;;;;;;;37.22;23.98;;;4.10;99.90;;;;;;5064045;28;20028;-72
2022/11/19 06:06:30;;;;;;;35.13;23.58;;;4.10;99.90;;;;;;5057431;28;20036;-73
2022/11/19 06:08:56;;;;;;;34.17;23.08;;;4.10;99.90;;;;;;5053462;28;20106;-72
2022/11/19 06:14:06;;;;;;;38.67;24.10;;;4.00;99.90;;;;;;5052858;28;20090;-74
2022/11/19 06:16:32;;;;;;;39.83;24.90;;;4.00;99.90;;;;;;5056571;28;20112;-74
2022/11/19 06:18:58;;;;;;;38.17;24.23;;;4.00;99.90;;;;;;5053570;28;20098;-74
2022/11/19 06:21:23;;;;;;;34.60;22.75;;;4.00;99.90;;;;;;5059047;28;20063;-72
2022/11/19 06:23:49;;;;;;;34.60;22.95;;;4.00;99.90;;;;;;5052202;28;20075;-75
2022/11/19 06:26:25;;;;;;;34.03;21.92;;;3.90;99.90;;;;;;5059583;28;20032;-73
2022/11/19 06:28:51;;;;;;;34.05;22.95;;;3.90;99.90;;;;;;5053019;28;20029;-73
2022/11/19 06:31:17;;;;;;;37.58;22.55;;;3.90;99.90;;;;;;5052664;28;20021;-73
2022/11/19 06:33:42;;;;;;;33.35;20.85;;;3.80;99.90;;;;;;5055061;28;20460;-73
2022/11/19 06:36:08;;;;;;;34.97;22.40;;;3.80;99.90;;;;;;5052096;28;20136;-74
2022/11/19 06:38:33;;;;;;;36.83;23.63;;;3.80;99.90;;;;;;5058882;28;20707;-74
2022/11/19 06:40:59;;;;;;;34.95;23.48;;;3.80;99.90;;;;;;5051557;28;20013;-73
2022/11/19 06:43:25;;;;;;;34.70;22.30;;;3.70;99.90;;;;;;5057735;28;20238;-73
2022/11/19 06:45:50;;;;;;;43.20;24.25;;;3.70;99.90;;;;;;5051799;28;20064;-74
2022/11/19 06:48:16;;;;;;;35.30;22.83;;;3.70;99.90;;;;;;5050034;28;20062;-73
2022/11/19 06:50:43;;;;;;;37.53;24.08;;;3.70;99.90;;;;;;5055649;28;20016;-73
2022/11/19 06:53:09;;;;;;;39.47;24.55;;;3.60;99.90;;;;;;5052540;28;20469;-73
2022/11/19 06:55:34;;;;;;;39.08;23.42;;;3.70;99.90;;;;;;5052958;28;20044;-72
2022/11/19 06:58:04;;;;;;;40.38;23.55;;;3.70;99.90;;;;;;5051292;28;20020;-72
2022/11/19 07:00:30;;;;;;;36.75;23.95;;;3.70;99.90;;;;;;5052802;28;20036;-72
2022/11/19 07:02:55;;;;;;;36.05;24.25;;;3.70;99.90;;;;;;5051573;28;20025;-73
2022/11/19 07:05:21;;;;;;;36.60;23.80;;;3.70;99.90;;;;;;5051662;28;20068;-73
2022/11/19 07:07:46;;;;;;;39.70;23.58;;;3.70;99.90;;;;;;5052398;28;20017;-73
2022/11/19 07:10:12;;;;;;;41.72;24.15;;;4.40;99.90;;;;;;5053489;28;20025;-73
2022/11/19 07:12:37;;;;;;;41.00;24.67;;;3.70;99.90;;;;;;5051639;28;20021;-73
2022/11/19 07:15:03;;;;;;;39.17;25.25;;;3.70;99.90;;;;;;5060465;28;20020;-73
2022/11/19 07:17:29;;;;;;;36.20;23.77;;;3.70;99.90;;;;;;5071076;28;20155;-72
2022/11/19 07:20:01;;;;;;;36.83;23.95;;;3.70;99.90;;;;;;5071390;28;20028;-72
2022/11/19 07:22:26;;;;;;;38.60;25.30;;;3.70;99.90;;;;;;5075541;28;20066;-73
2022/11/19 07:24:52;;;;;;;37.03;23.90;;;3.70;99.90;;;;;;5082531;28;20028;-73
2022/11/19 07:27:18;;;;;;;40.58;25.35;;;3.70;99.90;;;;;;5074584;28;20025;-75
2022/11/19 07:29:43;;;;;;;37.78;23.75;;;3.60;99.90;;;;;;5083628;28;20032;-73
2022/11/19 07:32:09;;;;;;;37.95;22.88;;;3.60;99.90;;;;;;5070259;28;20060;-73
2022/11/19 07:34:34;;;;;;;40.35;23.70;;;3.60;99.90;;;;;;5074860;28;20028;-73
2022/11/19 07:37:02;;;;;;;37.15;22.75;;;3.60;99.90;;;;;;5078780;28;20055;-72
2022/11/19 07:39:28;;;;;;;38.03;24.88;;;3.60;99.90;;;;;;5062580;28;20028;-73
2022/11/19 07:44:37;;;;;;;36.58;23.60;;;3.50;99.90;;;;;;5064082;28;20129;-74
2022/11/19 07:47:06;;;;;;;38.13;23.40;;;3.60;99.90;;;;;;5084813;28;20054;-73
2022/11/19 07:49:31;;;;;;;35.90;22.77;;;3.60;99.90;;;;;;5080843;28;20029;-73
2022/11/19 07:51:57;;;;;;;37.95;24.02;;;3.50;99.90;;;;;;5085180;28;20478;-72
2022/11/19 07:54:23;;;;;;;37.20;22.95;;;3.50;99.90;;;;;;5080610;28;20054;-73
2022/11/19 07:56:49;;;;;;;35.85;24.25;;;3.60;99.90;;;;;;5083380;28;20472;-74
2022/11/19 07:59:15;;;;;;;39.50;24.15;;;3.60;99.90;;;;;;5081635;28;20082;-73
2022/11/19 08:01:40;;;;;;;39.25;24.58;;;3.60;99.90;;;;;;5080484;28;20035;-74
2022/11/19 08:04:06;;;;;;;33.00;22.05;;;3.60;99.90;;;;;;5084273;28;20026;-74
2022/11/19 08:06:34;;;;;;;34.30;22.55;;;3.70;99.90;;;;;;5079336;28;20029;-73
2022/11/19 08:09:02;;;;;;;36.05;22.25;;;3.70;99.90;;;;;;5085406;28;20016;-74
2022/11/19 08:11:28;;;;;;;36.13;22.85;;;3.70;99.90;;;;;;5080424;28;20027;-73
2022/11/19 08:13:54;;;;;;;32.92;21.95;;;3.70;99.90;;;;;;5083602;28;20076;-73
2022/11/19 08:19:10;;;;;;;36.53;23.13;;;3.70;99.90;;;;;;5076722;28;20036;-74
2022/11/19 08:21:39;;;;;;;34.45;22.90;;;3.70;99.90;;;;;;5076351;28;20024;-73
2022/11/19 08:24:05;;;;;;;37.25;23.23;;;3.60;99.90;;;;;;5058609;28;20025;-75
2022/11/19 08:26:31;;;;;;;37.80;22.63;;;3.70;99.90;;;;;;5080476;28;20048;-73
2022/11/19 08:28:56;;;;;;;37.53;23.73;;;3.70;99.90;;;;;;5073167;28;20032;-74
2022/11/19 08:31:22;;;;;;;36.65;22.13;;;3.70;99.90;;;;;;5066183;28;20108;-74
2022/11/19 08:33:47;;;;;;;33.05;21.45;;;3.80;99.90;;;;;;5072305;28;20025;-74
2022/11/19 08:36:13;;;;;;;32.65;21.83;;;3.80;99.90;;;;;;5073854;28;20051;-74
2022/11/19 08:38:38;;;;;;;30.45;20.65;;;3.80;99.90;;;;;;5075071;28;20521;-74
2022/11/19 08:43:49;;;;;;;31.02;20.98;;;3.80;99.90;;;;;;5074677;28;20052;-75
2022/11/19 08:46:15;;;;;;;30.90;20.77;;;3.90;99.90;;;;;;5072772;28;20028;-74
2022/11/19 08:48:40;;;;;;;33.00;21.58;;;3.80;99.90;;;;;;5072092;28;20035;-74
2022/11/19 08:51:09;;;;;;;27.88;19.40;;;4.00;99.90;;;;;;5073010;28;20032;-74
2022/11/19 08:53:35;;;;;;;34.22;22.05;;;3.90;99.90;;;;;;5073092;28;20021;-73
2022/11/19 08:56:00;;;;;;;32.13;21.85;;;3.80;99.90;;;;;;5071526;28;20024;-74
2022/11/19 08:58:26;;;;;;;33.15;20.48;;;3.80;99.90;;;;;;5073615;28;20020;-75
2022/11/19 09:00:52;;;;;;;31.77;20.42;;;3.90;99.90;;;;;;5073535;28;20020;-74
2022/11/19 09:03:17;;;;;;;31.65;19.88;;;4.00;99.90;;;;;;5073281;28;20024;-74
2022/11/19 09:05:43;;;;;;;33.20;21.77;;;4.00;99.90;;;;;;5073976;28;20036;-74
2022/11/19 09:08:08;;;;;;;26.83;18.75;;;4.00;99.90;;;;;;5074063;28;20100;-74
2022/11/19 09:10:36;;;;;;;31.52;20.98;;;4.00;99.90;;;;;;5073441;28;20025;-75
2022/11/19 09:13:03;;;;;;;31.73;19.58;;;4.10;99.90;;;;;;5073498;28;20070;-74
2022/11/19 09:15:29;;;;;;;29.27;19.08;;;4.10;99.90;;;;;;5073555;28;20488;-75
2022/11/19 09:17:54;;;;;;;31.10;20.63;;;4.10;99.90;;;;;;5073084;28;20020;-74
2022/11/19 09:20:20;;;;;;;33.28;20.80;;;4.10;99.90;;;;;;5073419;28;20429;-74
2022/11/19 09:22:45;;;;;;;30.27;20.25;;;4.20;99.90;;;;;;5073416;28;20499;-74
2022/11/19 09:25:11;;;;;;;31.20;20.33;;;4.10;99.90;;;;;;5073097;28;20029;-74
2022/11/19 09:27:37;;;;;;;33.20;19.77;;;4.00;99.90;;;;;;5078080;28;20023;-75
2022/11/19 09:30:04;;;;;;;31.00;20.63;;;4.00;99.90;;;;;;5077924;28;20099;-76
2022/11/19 09:32:30;;;;;;;33.20;20.60;;;4.00;99.90;;;;;;5061185;28;20530;-76
2022/11/19 09:34:56;;;;;;;31.00;19.80;;;3.90;99.90;;;;;;5074746;28;20032;-76
2022/11/19 09:37:21;;;;;;;30.45;20.08;;;3.90;99.90;;;;;;5079648;28;20060;-76
2022/11/19 09:39:47;;;;;;;28.65;20.33;;;3.90;99.90;;;;;;5079585;28;20032;-76
2022/11/19 09:42:34;;;;;;;29.98;20.30;;;3.90;99.90;;;;;;5075683;28;20468;-74
2022/11/19 09:45:18;;;;;;;30.80;21.00;;;3.90;99.90;;;;;;5077102;28;20048;-75
2022/11/19 09:47:59;;;;;;;32.00;19.33;;;3.80;99.90;;;;;;5075530;28;20044;-74
2022/11/19 09:50:28;;;;;;;29.92;20.38;;;3.80;99.90;;;;;;5074428;28;20036;-75
2022/11/19 09:53:05;;;;;;;29.80;20.47;;;3.80;99.90;;;;;;5073358;28;20123;-76
2022/11/19 09:55:42;;;;;;;28.63;19.35;;;3.70;99.90;;;;;;5073870;28;20040;-75
2022/11/19 09:58:23;;;;;;;29.98;19.15;;;3.70;99.90;;;;;;5072994;28;20021;-77
2022/11/19 10:00:49;;;;;;;35.97;19.02;;;3.70;99.90;;;;;;5073498;28;20115;-76
2022/11/19 10:03:19;;;;;;;32.38;20.00;;;3.70;99.90;;;;;;5075627;28;20097;-75
2022/11/19 10:06:15;;;;;;;31.33;19.97;;;3.70;99.90;;;;;;5076954;28;20033;-76
2022/11/19 10:09:08;;;;;;;32.00;20.48;;;3.80;99.90;;;;;;5073927;28;20116;-76
2022/11/19 10:12:18;;;;;;;30.35;19.17;;;3.70;99.90;;;;;;5083745;28;20028;-75
2022/11/19 10:15:07;;;;;;;30.67;19.60;;;3.80;99.90;;;;;;5030288;28;20041;-75
2022/11/19 10:17:41;;;;;;;33.40;20.73;;;3.80;99.90;;;;;;5066730;28;20024;-75
2022/11/19 10:20:21;;;;;;;33.90;20.52;;;3.80;99.90;;;;;;5063452;28;20100;-75
2022/11/19 10:22:50;;;;;;;;;;;3.80;99.90;;;;;;5081804;28;20058;-74
2022/11/19 10:25:20;;;;;;;30.52;19.85;;;3.80;99.90;;;;;;5077238;28;20326;-75
2022/11/19 10:28:11;;;;;;;36.70;20.07;;;3.90;99.90;;;;;;5081238;28;20026;-75
2022/11/19 10:30:39;;;;;;;28.65;19.25;;;4.00;99.90;;;;;;5067249;28;20068;-76
2022/11/19 10:33:22;;;;;;;29.05;19.10;;;3.90;99.90;;;;;;5064244;28;20047;-75
2022/11/19 10:35:59;;;;;;;32.65;20.67;;;3.90;99.90;;;;;;5072636;28;20074;-76
2022/11/19 10:38:32;;;;;;;28.73;19.75;;;3.90;99.90;;;;;;5073393;28;20024;-76
2022/11/19 10:41:06;;;;;;;32.70;20.05;;;4.00;99.90;;;;;;5072557;28;20095;-75
2022/11/19 10:43:40;;;;;;;34.17;20.25;;;4.00;99.90;;;;;;5073117;28;20033;-76
2022/11/19 10:46:10;;;;;;;27.33;19.00;;;4.00;99.90;;;;;;5072617;28;20040;-74
2022/11/19 10:48:41;;;;;;;32.40;21.08;;;4.10;99.90;;;;;;5072698;28;20025;-74
2022/11/19 10:51:38;;;;;;;30.00;18.40;;;4.10;99.90;;;;;;5069819;28;20109;-74
2022/11/19 10:54:14;;;;;;;29.35;19.67;;;4.10;99.90;;;;;;5072148;28;20033;-74
2022/11/19 10:56:41;;;;;;;28.33;19.13;;;4.00;99.90;;;;;;5090602;28;20024;-74
2022/11/19 10:59:22;;;;;;;31.92;20.08;;;4.10;99.90;;;;;;5088643;28;20544;-73
2022/11/19 11:01:50;;;;;;;;;;;4.10;99.90;;;;;;5090161;28;20401;-73
2022/11/19 11:04:18;;;;;;;29.17;20.17;;;4.00;99.90;;;;;;5088681;28;19912;-74
2022/11/19 11:06:54;;;;;;;28.70;19.20;;;4.20;99.90;;;;;;5090934;28;20036;-74
2022/11/19 11:09:37;;;;;;;31.73;19.80;;;4.10;99.90;;;;;;5084548;28;20826;-73
2022/11/19 11:15:25;;;;;;;32.88;19.15;;;4.50;99.90;;;;;;5075277;28;20071;-74
2022/11/19 11:18:01;;;;;;;25.63;17.30;;;4.20;99.90;;;;;;5078135;28;20017;-74
2022/11/19 11:20:28;;;;;;;28.60;18.20;;;4.30;99.90;;;;;;5067177;28;20538;-74
2022/11/19 11:23:10;;;;;;;31.23;17.65;;;4.30;99.90;;;;;;5075201;28;20540;-74
2022/11/19 11:25:38;;;;;;;31.13;18.30;;;4.20;99.90;;;;;;5066296;28;20126;-74
2022/11/19 11:28:15;;;;;;;27.92;18.08;;;4.30;99.90;;;;;;5074918;28;20103;-74
2022/11/19 11:30:50;;;;;;;25.30;16.80;;;4.20;99.90;;;;;;5068751;28;20025;-74
2022/11/19 11:33:39;;;;;;;24.75;16.45;;;4.30;99.90;;;;;;5069832;28;20021;-74
2022/11/19 11:36:08;;;;;;;21.67;15.20;;;4.30;99.90;;;;;;5064457;28;20481;-73
2022/11/19 11:38:43;;;;;;;24.05;16.27;;;4.40;99.90;;;;;;5074799;28;20025;-74
2022/11/19 11:41:12;;;;;;;26.33;16.23;;;4.40;99.90;;;;;;5075397;28;20376;-73
2022/11/19 11:44:00;;;;;;;23.92;15.45;;;4.40;99.90;;;;;;5074759;28;20048;-74
2022/11/19 11:46:34;;;;;;;25.83;16.35;;;4.40;99.90;;;;;;5075549;28;20041;-74
2022/11/19 11:49:00;;;;;;;21.50;15.88;;;4.40;99.90;;;;;;5075485;28;20379;-74
2022/11/19 11:51:34;;;;;;;21.35;15.63;;;4.40;99.90;;;;;;5061561;28;20037;-74
2022/11/19 11:54:26;;;;;;;21.70;16.63;;;4.30;99.90;;;;;;5060420;28;20025;-74
2022/11/19 11:56:51;;;;;;;22.08;15.90;;;4.10;99.90;;;;;;5071499;28;20036;-74
2022/11/19 11:59:24;;;;;;;20.40;15.05;;;4.10;99.90;;;;;;5074180;28;20104;-74
2022/11/19 12:02:05;;;;;;;24.50;16.00;;;4.00;99.90;;;;;;5057020;28;20036;-76
2022/11/19 12:04:31;;;;;;;;;;;4.10;99.90;;;;;;5059158;28;20111;-73
2022/11/19 12:07:15;;;;;;;21.98;14.23;;;4.10;99.90;;;;;;5079841;28;19908;-75
2022/11/19 12:10:07;;;;;;;23.05;14.70;;;4.20;99.90;;;;;;5083971;28;20029;-74
2022/11/19 12:12:39;;;;;;;20.70;13.95;;;4.30;99.90;;;;;;5077787;28;20034;-75
2022/11/19 12:15:08;;;;;;;21.42;15.55;;;4.30;99.90;;;;;;5085336;28;20026;-74
2022/11/19 12:17:56;;;;;;;24.05;14.68;;;4.40;99.90;;;;;;5088861;28;20586;-75
2022/11/19 12:21:00;;;;;;;23.33;15.57;;;4.40;99.90;;;;;;5086237;28;20110;-74
2022/11/19 12:23:57;;;;;;;25.88;15.52;;;4.50;99.90;;;;;;5083688;28;20028;-75
2022/11/19 12:26:48;;;;;;;27.13;15.65;;;4.50;99.90;;;;;;5085060;28;20037;-74
2022/11/19 12:29:37;;;;;;;20.52;14.20;;;4.50;99.90;;;;;;5074543;28;20016;-74
2022/11/19 12:32:40;;;;;;;19.35;14.27;;;4.50;99.90;;;;;;5057901;28;20083;-75
2022/11/19 12:35:33;;;;;;;19.60;13.60;;;4.60;99.90;;;;;;5074278;28;20049;-75
2022/11/19 12:38:13;;;;;;;22.33;14.30;;;4.60;99.90;;;;;;5074569;28;20025;-75
2022/11/19 12:40:55;;;;;;;18.70;13.13;;;4.60;99.90;;;;;;5074307;28;20032;-75
2022/11/19 12:43:41;;;;;;;18.92;14.07;;;4.60;99.90;;;;;;5074295;28;20032;-75
2022/11/19 12:46:37;;;;;;;16.60;12.90;;;4.70;99.90;;;;;;5061829;28;20055;-75
2022/11/19 12:49:47;;;;;;;16.77;12.68;;;4.70;99.90;;;;;;5073766;28;20024;-74
2022/11/19 12:52:38;;;;;;;18.00;13.05;;;4.70;99.90;;;;;;5074313;28;20516;-75
2022/11/19 12:55:32;;;;;;;18.90;12.60;;;4.70;99.90;;;;;;5073884;28;20032;-75
2022/11/19 12:57:57;;;;;;;16.83;12.27;;;4.70;99.90;;;;;;5075225;28;20170;-74
2022/11/19 13:00:24;;;;;;;19.88;12.57;;;4.70;99.90;;;;;;5074570;28;20056;-74
2022/11/19 13:03:13;;;;;;;17.83;13.07;;;4.60;99.90;;;;;;5073924;28;20017;-73
2022/11/19 13:06:03;;;;;;;19.10;13.05;;;4.70;99.90;;;;;;5073933;28;20035;-74
2022/11/19 13:08:29;;;;;;;15.45;12.95;;;4.70;99.90;;;;;;5073240;28;20091;-75
2022/11/19 13:11:13;;;;;;;17.90;12.50;;;4.70;99.90;;;;;;5074292;28;20115;-75
2022/11/19 13:13:45;;;;;;;17.83;13.35;;;4.70;99.90;;;;;;5074621;28;20370;-75
2022/11/19 13:16:15;;;;;;;14.57;11.85;;;4.70;99.90;;;;;;5073232;28;20012;-74
2022/11/19 13:18:44;;;;;;;18.52;12.27;;;4.70;99.90;;;;;;5074148;28;20377;-75
2022/11/19 13:21:17;;;;;;;19.45;12.35;;;4.70;99.90;;;;;;5074055;28;20017;-74
2022/11/19 13:23:45;;;;;;;15.43;11.85;;;4.70;99.90;;;;;;5073759;28;20112;-74